Bella Bella, Bella Bella (Campbell Island) Airport (CBBC)

NameBella Bella (Campbell Island) Airport
CityBella Bella
CountryCanada
ICAOCBBC
IATA
Altitude43 m
CoordinatesGoogle Map
Live Air TrafficLiveATC.net
METARCBBC 231200Z AUTO 15008G17KT 9SM -RA BKN025 OVC030 11/10 A2987 RMK SLP118
2019-08-23 12:00:00 Wind: Southeast (150°) 4.12 m/s - Visibility: 14484.06 m - Weather: Light Rain - Temperature: 11 °C - Dew point: 10 °C - Humidity: 93.6% - Pressure: 1011.51 hPa

Sorry, no flights used the airport in this database.